Time;durP1;ratioP1;P1;durP2;ratioP2;P2;SDS_P1;SDS_P2;PMS_P1;PMS_P2;Temp;Humidity;BMP_temperature;BMP_pressure;BME280_temperature;BME280_humidity;BME280_pressure;Samples;Min_cycle;Max_cycle;Signal;HPM_P1;HPM_P2
2021/12/29 00:00:13;;;;;;;4.75;2.40;;;;;;;1.59;85.69;98568.91;4895566;29;20385;-91
2021/12/29 00:02:46;;;;;;;3.90;2.13;;;;;;;1.50;85.45;98546.16;4895753;29;20045;-92
2021/12/29 00:05:19;;;;;;;4.97;2.38;;;;;;;1.67;85.91;98567.38;4881172;29;20049;-91
2021/12/29 00:07:55;;;;;;;5.90;2.83;;;;;;;1.64;85.58;98574.88;4881287;29;20055;-92
2021/12/29 00:10:28;;;;;;;4.55;2.70;;;;;;;1.63;85.79;98585.75;4880387;29;20238;-92
2021/12/29 00:13:06;;;;;;;5.75;2.65;;;;;;;1.50;85.74;98574.66;4895486;29;20109;-92
2021/12/29 00:15:42;;;;;;;5.20;2.67;;;;;;;1.65;85.61;98589.16;4880384;29;20065;-92
2021/12/29 00:18:14;;;;;;;5.28;2.67;;;;;;;1.60;85.72;98590.75;4896076;29;20053;-92
2021/12/29 00:20:48;;;;;;;6.97;2.58;;;;;;;1.12;85.74;98511.19;4880875;29;20499;-92
2021/12/29 00:23:29;;;;;;;4.95;2.85;;;;;;;1.48;85.47;98565.38;4880990;29;20049;-92
2021/12/29 00:26:22;;;;;;;4.20;2.25;;;;;;;1.09;85.63;98513.63;4895987;29;20125;-91
2021/12/29 00:28:58;;;;;;;3.60;2.10;;;;;;;1.31;85.61;98563.44;4879642;29;20056;-91
2021/12/29 00:31:32;;;;;;;4.10;2.25;;;;;;;0.78;85.52;98448.63;4879251;29;20053;-92
2021/12/29 00:34:25;;;;;;;5.18;2.50;;;;;;;1.71;86.10;98609.34;4879937;29;20053;-93
2021/12/29 00:37:09;;;;;;;3.72;2.30;;;;;;;1.45;85.51;98547.75;4880770;29;20068;-92
2021/12/29 00:40:15;;;;;;;3.67;2.25;;;;;;;1.08;85.92;98494.34;4893891;29;20053;-93
2021/12/29 00:43:07;;;;;;;4.22;2.40;;;;;;;1.09;85.55;98506.09;4879745;29;20124;-92
2021/12/29 00:46:23;;;;;;;5.18;3.10;;;;;;;1.66;86.06;98615.97;4878740;29;20053;-92
2021/12/29 00:48:57;;;;;;;4.47;2.60;;;;;;;1.57;85.61;98590.69;4863483;29;20060;-92
2021/12/29 00:51:30;;;;;;;7.03;3.47;;;;;;;1.45;85.27;98570.34;4878424;29;20530;-92
2021/12/29 00:54:04;;;;;;;6.13;3.20;;;;;;;0.96;85.87;98504.16;4878791;29;20052;-92
2021/12/29 00:56:37;;;;;;;5.05;2.83;;;;;;;1.50;85.65;98584.72;4818459;29;20128;-93
2021/12/29 00:59:08;;;;;;;7.32;3.17;;;;;;;0.87;86.08;98478.91;4878726;29;20049;-93
2021/12/29 01:01:41;;;;;;;4.75;2.72;;;;;;;1.68;85.75;98619.38;5003126;23;20051;-93
2021/12/29 01:04:15;;;;;;;5.40;2.95;;;;;;;1.70;86.31;98617.72;4923504;29;20110;-93
2021/12/29 01:06:48;;;;;;;5.25;3.08;;;;;;;1.59;85.78;98589.03;4939285;29;20047;-96
2021/12/29 01:09:21;;;;;;;5.80;3.30;;;;;;;1.47;86.13;98584.66;4923953;29;20047;-95
2021/12/29 01:11:56;;;;;;;4.15;2.72;;;;;;;0.89;85.51;98489.81;4956271;28;20055;-95
2021/12/29 01:14:31;;;;;;;4.22;2.50;;;;;;;1.11;85.59;98524.53;4955842;28;20146;-96
2021/12/29 01:17:01;;;;;;;4.03;2.58;;;;;;;1.65;85.65;98637.78;4938982;29;20402;-95
2021/12/29 01:19:33;;;;;;;;;;;;;;;1.61;85.34;98632.66;4956346;28;20052;-95
2021/12/29 01:22:19;;;;;;;3.63;2.10;;;;;;;1.65;86.25;98639.44;4957227;29;20291;-95
2021/12/29 01:24:51;;;;;;;4.53;2.60;;;;;;;1.20;85.93;98569.91;4897250;29;20057;-95
2021/12/29 01:27:26;;;;;;;4.57;2.58;;;;;;;0.88;85.50;98530.81;4897618;29;20044;-94
2021/12/29 01:30:05;;;;;;;5.63;2.80;;;;;;;1.12;85.56;98571.47;4897387;29;20045;-94
2021/12/29 01:32:39;;;;;;;3.88;2.25;;;;;;;1.43;85.52;98618.09;4882181;29;20050;-93
2021/12/29 01:35:12;;;;;;;4.60;2.53;;;;;;;1.48;85.57;98616.50;4881736;29;20108;-94
2021/12/29 01:37:48;;;;;;;6.72;2.60;;;;;;;0.46;85.96;98450.53;4882391;29;20052;-95
2021/12/29 01:40:22;;;;;;;4.30;2.47;;;;;;;1.46;85.73;98617.31;4897230;29;20056;-95
2021/12/29 01:43:01;;;;;;;5.30;2.50;;;;;;;1.35;85.89;98587.78;4897081;29;20494;-94
2021/12/29 01:45:36;;;;;;;4.75;2.58;;;;;;;1.10;85.68;98553.03;4881793;29;20052;-94
2021/12/29 01:48:07;;;;;;;5.32;2.85;;;;;;;1.64;85.77;98637.72;4881601;29;20540;-94
2021/12/29 01:50:41;;;;;;;6.03;2.42;;;;;;;0.83;85.69;98502.28;4865958;29;20048;-94
2021/12/29 01:53:21;;;;;;;4.88;2.58;;;;;;;1.17;86.10;98569.91;4896729;29;20092;-93
2021/12/29 01:56:04;;;;;;;7.55;2.92;;;;;;;1.44;86.07;98614.75;4881650;29;20061;-94
2021/12/29 01:58:39;;;;;;;4.43;2.58;;;;;;;1.40;85.84;98612.16;4881557;29;20561;-94
2021/12/29 02:01:11;;;;;;;4.72;2.67;;;;;;;0.81;85.54;98500.56;4885814;29;20065;-94
2021/12/29 02:04:01;;;;;;;5.22;2.80;;;;;;;1.50;86.11;98616.53;4952478;29;20087;-93
2021/12/29 02:06:33;;;;;;;6.13;2.95;;;;;;;1.02;86.09;98533.59;4938114;29;20039;-94
2021/12/29 02:09:07;;;;;;;4.43;2.40;;;;;;;1.34;85.99;98563.47;4953876;29;20153;-93
2021/12/29 02:11:44;;;;;;;4.72;2.75;;;;;;;1.74;85.71;98619.47;4938144;29;20135;-94
2021/12/29 02:14:19;;;;;;;6.18;3.17;;;;;;;1.72;86.16;98621.13;4953843;29;20058;-92
2021/12/29 02:16:52;;;;;;;7.97;3.40;;;;;;;1.63;86.26;98620.97;4955454;28;20408;-92
2021/12/29 02:19:25;;;;;;;4.85;2.80;;;;;;;1.48;86.36;98610.63;4941377;29;20186;-92
2021/12/29 02:22:04;;;;;;;6.15;3.78;;;;;;;1.12;85.82;98541.31;4957966;29;20055;-92
2021/12/29 02:24:40;;;;;;;8.65;4.78;;;;;;;1.53;86.23;98604.03;4942245;29;20048;-92
2021/12/29 02:27:34;;;;;;;8.52;4.75;;;;;;;1.61;86.45;98607.53;4942077;29;20051;-92
2021/12/29 02:30:06;;;;;;;7.47;4.68;;;;;;;1.30;85.96;98555.84;4884709;29;20147;-91
2021/12/29 02:32:41;;;;;;;7.30;4.03;;;;;;;1.64;86.19;98600.88;4900121;29;20056;-92
2021/12/29 02:35:13;;;;;;;10.80;4.93;;;;;;;1.57;86.12;98600.72;4899906;29;20219;-92
2021/12/29 02:37:47;;;;;;;9.60;4.68;;;;;;;1.43;86.01;98582.91;4884612;29;20049;-92
2021/12/29 02:40:20;;;;;;;10.75;4.95;;;;;;;1.56;86.23;98594.03;4884512;29;20063;-93
2021/12/29 02:42:53;;;;;;;11.65;5.70;;;;;;;0.79;86.13;98462.88;4900064;29;20054;-92
2021/12/29 02:45:26;;;;;;;10.10;5.25;;;;;;;1.30;86.13;98546.66;4899823;29;20055;-92
2021/12/29 02:48:02;;;;;;;10.20;4.85;;;;;;;1.48;86.45;98570.41;4903934;29;20120;-90
2021/12/29 02:50:35;;;;;;;9.50;4.57;;;;;;;1.59;86.11;98601.59;4889207;29;20139;-92
2021/12/29 02:53:12;;;;;;;11.88;5.43;;;;;;;0.64;86.50;98434.97;4884280;29;20049;-92
2021/12/29 02:55:43;;;;;;;12.75;5.22;;;;;;;1.41;86.48;98558.56;4953856;29;20098;-92
2021/12/29 02:58:17;;;;;;;7.55;4.32;;;;;;;1.64;86.38;98587.44;4958361;28;20055;-92
2021/12/29 03:00:54;;;;;;;8.90;4.70;;;;;;;1.38;86.26;98556.00;4958206;29;20062;-93
2021/12/29 03:03:30;;;;;;;9.02;4.57;;;;;;;1.63;86.62;98601.69;4937595;29;20058;-92
2021/12/29 03:06:07;;;;;;;8.45;4.15;;;;;;;0.80;86.07;98464.56;4923116;29;20119;-92
2021/12/29 03:08:44;;;;;;;7.93;4.47;;;;;;;1.61;86.63;98592.44;4938943;29;20059;-93
2021/12/29 03:11:17;;;;;;;7.47;3.97;;;;;;;1.31;86.11;98543.34;4939055;29;20078;-92
2021/12/29 03:13:51;;;;;;;7.97;4.00;;;;;;;1.16;86.59;98517.09;4938898;29;20067;-93
2021/12/29 03:16:24;;;;;;;7.25;4.03;;;;;;;1.60;86.13;98576.50;4937691;29;20044;-91
2021/12/29 03:18:58;;;;;;;7.25;3.80;;;;;;;1.51;86.36;98562.94;4938078;29;20052;-93
2021/12/29 03:21:31;;;;;;;6.72;3.80;;;;;;;1.30;86.02;98526.56;4938001;29;20078;-93
2021/12/29 03:24:08;;;;;;;6.50;3.60;;;;;;;1.62;86.26;98576.53;4937695;29;20043;-92
2021/12/29 03:26:39;;;;;;;7.07;4.10;;;;;;;1.57;86.71;98581.47;4938719;29;20130;-93
2021/12/29 03:29:09;;;;;;;5.28;3.22;;;;;;;1.60;86.01;98583.19;4938545;29;20086;-93
2021/12/29 03:31:41;;;;;;;6.95;3.25;;;;;;;1.46;86.56;98549.44;4938524;29;20058;-93
2021/12/29 03:34:15;;;;;;;6.45;3.55;;;;;;;1.04;86.35;98495.13;4937546;29;20044;-93
2021/12/29 03:36:45;;;;;;;6.90;3.58;;;;;;;1.53;86.83;98576.38;4937420;29;20154;-93
2021/12/29 03:39:20;;;;;;;6.53;3.60;;;;;;;1.54;86.29;98590.63;4938642;29;20446;-92
2021/12/29 03:41:54;;;;;;;7.80;3.45;;;;;;;0.52;86.36;98424.72;4938482;29;20047;-93
2021/12/29 03:44:27;;;;;;;6.53;3.33;;;;;;;1.61;86.61;98603.31;4906406;29;20397;-93
2021/12/29 03:47:00;;;;;;;8.35;4.00;;;;;;;1.61;86.65;98610.03;4937331;29;20401;-92
2021/12/29 03:49:34;;;;;;;5.80;3.33;;;;;;;1.38;86.02;98566.06;4937177;29;20050;-93
2021/12/29 03:52:07;;;;;;;5.90;3.03;;;;;;;1.62;86.86;98619.25;4937632;29;20060;-93
2021/12/29 03:54:42;;;;;;;6.70;3.97;;;;;;;1.61;86.34;98627.63;4937241;29;20115;-94
2021/12/29 03:57:12;;;;;;;5.38;3.17;;;;;;;1.55;85.73;98623.34;4938064;29;20057;-93
2021/12/29 03:59:47;;;;;;;;;;;;;;;1.60;86.07;98625.94;4938379;29;20059;-93
2021/12/29 04:02:17;;;;;;;6.78;3.65;;;;;;;1.56;86.55;98609.13;4940151;29;19923;-91
2021/12/29 04:04:52;;;;;;;7.35;4.03;;;;;;;1.61;86.06;98628.47;4940183;29;20047;-92
2021/12/29 04:07:21;;;;;;;8.98;3.90;;;;;;;1.32;86.39;98570.16;4957012;28;20449;-93
2021/12/29 04:09:56;;;;;;;6.22;3.75;;;;;;;1.10;85.92;98527.91;4923792;29;20126;-92
2021/12/29 04:12:27;;;;;;;7.18;3.70;;;;;;;1.66;86.13;98626.03;4924884;29;20401;-93
2021/12/29 04:15:04;;;;;;;5.70;3.40;;;;;;;1.68;85.94;98619.38;4956858;29;20051;-93
2021/12/29 04:17:38;;;;;;;8.10;4.40;;;;;;;1.41;86.19;98573.66;4925211;29;20047;-95
2021/12/29 04:22:57;;;;;;;6.97;3.80;;;;;;;1.39;85.71;98580.31;4956935;28;20047;-96
2021/12/29 04:25:52;;;;;;;6.75;3.65;;;;;;;1.52;85.77;98614.88;4924536;29;20057;-92
2021/12/29 04:28:27;;;;;;;6.03;3.10;;;;;;;0.92;85.69;98527.53;4921832;29;20047;-94
2021/12/29 04:31:05;;;;;;;5.80;3.40;;;;;;;1.49;86.55;98618.19;4924637;29;20047;-93
2021/12/29 04:33:39;;;;;;;6.30;3.20;;;;;;;1.54;86.31;98628.31;4940033;29;20053;-93
2021/12/29 04:36:14;;;;;;;6.07;3.55;;;;;;;1.52;86.09;98624.94;4956481;28;20059;-92
2021/12/29 04:38:47;;;;;;;8.63;3.95;;;;;;;1.53;86.32;98626.66;4938979;29;20189;-92
2021/12/29 04:41:23;;;;;;;6.38;3.78;;;;;;;1.33;85.93;98594.47;4956294;29;20057;-92
2021/12/29 04:43:56;;;;;;;6.70;3.97;;;;;;;1.60;86.29;98625.94;4956478;29;20058;-92
2021/12/29 04:46:37;;;;;;;6.05;3.35;;;;;;;1.51;86.09;98620.75;4956056;28;20098;-92
2021/12/29 04:49:13;;;;;;;6.32;3.22;;;;;;;1.49;86.02;98614.84;4939593;29;20173;-92
2021/12/29 04:51:54;;;;;;;6.25;3.65;;;;;;;1.51;85.80;98625.78;4956368;29;20126;-92
2021/12/29 04:54:29;;;;;;;5.68;3.60;;;;;;;1.58;85.68;98650.22;4939381;29;20051;-92
2021/12/29 04:57:06;;;;;;;6.22;3.63;;;;;;;1.02;86.01;98559.56;4956282;28;20059;-92
2021/12/29 04:59:41;;;;;;;6.57;3.38;;;;;;;1.13;86.16;98575.66;4939670;29;20050;-91
2021/12/29 05:02:11;;;;;;;6.43;3.88;;;;;;;1.57;86.76;98651.00;4955469;28;20417;-92
2021/12/29 05:04:54;;;;;;;6.43;3.40;;;;;;;1.57;86.28;98656.03;4939123;29;20051;-91
2021/12/29 05:10:07;;;;;;;8.05;4.05;;;;;;;1.14;86.18;98617.56;4955912;28;20054;-92
2021/12/29 05:12:39;;;;;;;7.30;3.80;;;;;;;1.48;86.43;98668.44;4939296;29;20053;-92
2021/12/29 05:15:12;;;;;;;8.15;3.83;;;;;;;1.43;86.48;98657.47;4939464;29;20055;-92
2021/12/29 05:17:43;;;;;;;7.60;3.92;;;;;;;1.32;86.14;98655.59;4957821;29;20079;-91
2021/12/29 05:20:16;;;;;;;9.80;4.97;;;;;;;1.02;86.27;98617.31;4956191;28;20208;-92
2021/12/29 05:22:50;;;;;;;9.93;5.43;;;;;;;1.41;86.50;98682.56;4939450;29;20050;-91
2021/12/29 05:25:24;;;;;;;8.93;4.53;;;;;;;1.41;86.09;98669.16;4939020;29;20492;-92
2021/12/29 05:27:59;;;;;;;7.47;3.72;;;;;;;1.47;86.41;98684.34;4956002;28;20482;-92
2021/12/29 05:30:32;;;;;;;6.97;4.38;;;;;;;1.30;86.46;98667.28;4938759;29;20047;-92
2021/12/29 05:33:08;;;;;;;8.00;5.05;;;;;;;1.47;86.11;98677.66;4955814;28;20135;-91
2021/12/29 05:35:41;;;;;;;8.20;4.50;;;;;;;1.48;86.94;98678.50;4955838;29;20134;-92
2021/12/29 05:38:14;;;;;;;8.63;4.55;;;;;;;1.30;86.15;98652.19;4923575;29;20053;-91
2021/12/29 05:40:50;;;;;;;7.25;4.38;;;;;;;0.98;86.18;98600.50;4938769;29;20138;-90
2021/12/29 05:43:27;;;;;;;6.50;4.35;;;;;;;1.48;86.09;98670.97;4957104;29;20051;-89
2021/12/29 05:45:56;;;;;;;9.80;4.90;;;;;;;1.55;86.79;98680.31;4955967;28;20078;-91
2021/12/29 05:48:30;;;;;;;;;;;;;;;1.54;86.34;98681.13;4956064;28;20039;-92
2021/12/29 05:51:03;;;;;;;6.78;4.22;;;;;;;1.52;86.24;98688.63;4957576;28;19926;-91
2021/12/29 05:53:37;;;;;;;8.45;4.75;;;;;;;1.53;86.52;98694.53;4959453;28;20140;-91
2021/12/29 05:56:13;;;;;;;8.75;4.35;;;;;;;1.53;86.15;98689.50;4959388;29;20054;-92
2021/12/29 05:58:48;;;;;;;8.05;3.75;;;;;;;1.54;86.42;98688.66;4942286;29;20067;-92
2021/12/29 06:01:21;;;;;;;8.75;4.35;;;;;;;1.60;86.87;98681.25;4959429;29;20051;-92
2021/12/29 06:03:54;;;;;;;8.20;4.40;;;;;;;1.17;86.32;98615.13;4958333;29;20062;-92
2021/12/29 06:06:28;;;;;;;6.28;3.60;;;;;;;1.47;86.36;98674.28;4942485;29;20497;-91
2021/12/29 06:09:01;;;;;;;6.60;3.47;;;;;;;1.37;86.50;98662.38;4958977;28;20058;-91
2021/12/29 06:11:34;;;;;;;7.68;4.15;;;;;;;1.22;86.37;98637.81;4926232;29;20055;-91
2021/12/29 06:14:08;;;;;;;6.72;3.90;;;;;;;1.39;86.52;98650.69;4941783;29;20059;-92
2021/12/29 06:16:42;;;;;;;7.20;4.18;;;;;;;1.52;86.54;98672.69;4942407;29;20053;-92
2021/12/29 06:19:12;;;;;;;8.95;4.82;;;;;;;1.27;86.72;98632.03;4942108;29;20055;-91
2021/12/29 06:21:45;;;;;;;;;;;;;;;1.60;86.14;98691.31;4959299;29;20109;-91
2021/12/29 06:24:19;;;;;;;7.88;4.15;;;;;;;1.60;86.72;98681.25;4926930;29;19922;-90
2021/12/29 06:26:52;;;;;;;6.30;4.35;;;;;;;1.59;86.69;98689.59;4941843;29;20050;-92
2021/12/29 06:29:28;;;;;;;10.07;4.22;;;;;;;1.56;86.60;98680.31;4942186;29;20493;-91
2021/12/29 06:32:02;;;;;;;7.47;4.63;;;;;;;1.56;86.38;98679.50;4958768;29;20396;-91
2021/12/29 06:34:36;;;;;;;7.90;4.78;;;;;;;1.52;86.36;98677.72;4941763;29;20039;-91
2021/12/29 06:37:12;;;;;;;9.30;4.97;;;;;;;1.54;86.52;98686.13;4958987;29;20044;-92
2021/12/29 06:39:47;;;;;;;9.30;4.90;;;;;;;1.61;86.71;98700.56;4941899;29;20051;-92
2021/12/29 06:42:21;;;;;;;10.10;5.20;;;;;;;1.49;86.24;98682.72;4958553;28;20134;-90
2021/12/29 06:44:53;;;;;;;14.90;5.72;;;;;;;1.62;86.83;98717.31;4941818;29;20082;-91
2021/12/29 06:47:23;;;;;;;9.90;5.15;;;;;;;1.66;86.73;98719.06;4958760;29;20050;-91
2021/12/29 06:49:58;;;;;;;10.15;5.75;;;;;;;1.65;86.90;98722.41;4942315;29;20560;-91
2021/12/29 06:52:28;;;;;;;11.63;6.38;;;;;;;1.68;86.37;98725.00;4925970;29;20051;-91
2021/12/29 06:55:02;;;;;;;11.75;5.80;;;;;;;1.67;86.57;98720.75;4941611;29;20142;-91
2021/12/29 06:57:32;;;;;;;11.00;5.85;;;;;;;1.66;86.11;98727.44;4941504;29;20069;-91
2021/12/29 07:00:12;;;;;;;9.45;5.10;;;;;;;1.66;86.88;98726.59;4958163;28;20489;-91
2021/12/29 07:02:42;;;;;;;9.70;5.45;;;;;;;1.62;86.87;98730.75;4936704;29;20058;-92
2021/12/29 07:05:16;;;;;;;10.23;5.40;;;;;;;1.43;86.31;98705.22;4938921;29;20050;-91
2021/12/29 07:07:52;;;;;;;9.40;5.45;;;;;;;1.64;86.83;98740.81;4938087;29;20050;-91
2021/12/29 07:10:23;;;;;;;9.05;5.68;;;;;;;1.53;86.72;98724.69;4922017;29;20048;-91
2021/12/29 07:12:57;;;;;;;11.40;5.28;;;;;;;1.52;86.83;98712.91;4938057;29;20501;-91
2021/12/29 07:15:32;;;;;;;10.68;6.70;;;;;;;1.71;86.66;98740.09;4939012;29;20052;-91
2021/12/29 07:18:06;;;;;;;14.13;7.85;;;;;;;1.47;86.66;98715.34;4938953;29;20059;-92
2021/12/29 07:20:40;;;;;;;15.70;8.10;;;;;;;1.58;86.23;98738.19;4937536;29;20052;-91
2021/12/29 07:23:13;;;;;;;11.85;7.47;;;;;;;1.69;87.03;98761.88;4938772;29;20054;-92
2021/12/29 07:25:46;;;;;;;11.68;6.60;;;;;;;1.72;86.71;98754.38;4937902;29;20387;-91
2021/12/29 07:28:20;;;;;;;12.23;6.60;;;;;;;0.77;86.73;98602.56;4938007;29;20051;-94
2021/12/29 07:30:56;;;;;;;12.95;7.25;;;;;;;1.02;86.29;98649.13;4938538;29;20044;-91
2021/12/29 07:33:27;;;;;;;11.77;6.32;;;;;;;1.68;86.57;98755.16;4938517;29;20051;-90
2021/12/29 07:35:58;;;;;;;9.95;5.47;;;;;;;1.71;86.81;98765.25;4937459;29;20051;-90
2021/12/29 07:38:36;;;;;;;9.55;5.53;;;;;;;1.69;87.02;98767.75;4921750;29;20075;-90
2021/12/29 07:41:08;;;;;;;9.20;5.47;;;;;;;1.59;86.33;98754.97;4938235;28;20590;-89
2021/12/29 07:43:41;;;;;;;9.48;5.50;;;;;;;1.32;86.54;98710.88;4938371;29;20135;-90
2021/12/29 07:46:16;;;;;;;10.30;5.63;;;;;;;1.64;86.52;98753.38;4936980;29;20055;-89
2021/12/29 07:48:49;;;;;;;12.10;6.00;;;;;;;1.69;86.04;98756.84;4938034;29;20055;-91
2021/12/29 07:51:22;;;;;;;13.15;6.13;;;;;;;1.80;86.31;98781.38;4937970;29;20044;-91
2021/12/29 07:53:52;;;;;;;11.23;5.22;;;;;;;1.60;86.37;98751.63;4937999;29;20055;-91
2021/12/29 07:56:28;;;;;;;;;;;;;;;1.81;86.47;98779.72;4937852;29;20047;-92
2021/12/29 07:59:01;;;;;;;11.13;6.45;;;;;;;1.79;86.14;98776.31;4938062;29;20006;-92
2021/12/29 08:01:36;;;;;;;13.77;7.97;;;;;;;1.52;86.85;98743.09;4937099;29;20056;-91
2021/12/29 08:04:11;;;;;;;14.55;7.03;;;;;;;1.81;86.28;98783.06;4936362;29;20048;-92
2021/12/29 08:06:45;;;;;;;12.30;7.03;;;;;;;1.79;86.51;98789.75;4937227;29;20047;-92
2021/12/29 08:09:16;;;;;;;10.57;6.07;;;;;;;1.66;86.77;98757.63;4938193;29;20055;-92
2021/12/29 08:11:46;;;;;;;11.65;6.75;;;;;;;1.53;85.82;98748.16;4937569;29;20048;-92
2021/12/29 08:14:19;;;;;;;13.40;6.82;;;;;;;1.81;86.18;98809.88;4935715;29;20406;-92
2021/12/29 08:16:55;;;;;;;12.77;6.95;;;;;;;1.53;86.23;98757.38;4936615;29;20069;-91
2021/12/29 08:19:28;;;;;;;12.60;6.95;;;;;;;1.75;86.04;98802.25;4937449;29;20102;-94
2021/12/29 08:21:58;;;;;;;11.07;6.63;;;;;;;1.75;86.91;98805.56;4936713;29;20044;-92
2021/12/29 08:24:28;;;;;;;13.20;6.80;;;;;;;1.73;86.03;98799.69;4920955;29;20466;-92
2021/12/29 08:27:01;;;;;;;12.30;6.78;;;;;;;1.83;86.30;98805.72;4936261;29;20058;-93
2021/12/29 08:29:43;;;;;;;15.63;7.57;;;;;;;1.80;86.87;98805.69;4937997;29;20055;-93
2021/12/29 08:32:18;;;;;;;12.50;6.35;;;;;;;1.82;86.99;98811.59;4938420;29;20051;-89
2021/12/29 08:34:48;;;;;;;13.35;6.18;;;;;;;1.70;86.52;98793.75;4938533;29;20052;-91
2021/12/29 08:37:18;;;;;;;10.13;6.43;;;;;;;1.23;86.79;98712.34;4936912;29;20071;-92
2021/12/29 08:39:57;;;;;;;12.00;7.03;;;;;;;1.76;86.57;98797.22;4936673;29;20557;-93
2021/12/29 08:42:28;;;;;;;11.90;6.30;;;;;;;1.47;86.75;98750.53;4937280;29;20047;-93
2021/12/29 08:45:07;;;;;;;11.02;6.40;;;;;;;1.79;86.47;98803.97;4937287;29;20059;-93
2021/12/29 08:47:42;;;;;;;11.80;6.47;;;;;;;1.95;87.05;98826.09;4936687;29;20168;-93
2021/12/29 08:50:16;;;;;;;11.43;6.70;;;;;;;1.98;86.80;98828.69;4936230;29;20051;-92
2021/12/29 08:52:47;;;;;;;13.77;6.57;;;;;;;1.79;87.07;98793.94;4935873;29;20099;-93
2021/12/29 08:55:18;;;;;;;10.88;6.38;;;;;;;1.95;86.88;98821.06;4935986;29;20046;-93
2021/12/29 08:57:48;;;;;;;12.63;6.80;;;;;;;1.85;86.40;98809.13;4936229;29;20055;-92
2021/12/29 09:00:27;;;;;;;12.40;7.40;;;;;;;1.90;87.16;98808.41;4937327;29;20071;-89
2021/12/29 09:03:00;;;;;;;15.52;6.15;;;;;;;1.97;86.20;98834.50;4942576;29;20416;-94
2021/12/29 09:05:34;;;;;;;12.32;6.53;;;;;;;1.88;86.63;98817.59;4923844;29;20047;-92
2021/12/29 09:08:05;;;;;;;13.13;6.78;;;;;;;2.01;87.01;98831.25;4955977;28;20083;-91
2021/12/29 09:10:41;;;;;;;10.00;5.70;;;;;;;1.80;86.42;98800.66;4955971;29;20051;-90
2021/12/29 09:16:24;;;;;;;13.60;6.32;;;;;;;0.77;86.48;98667.84;4800277;23;20043;-88
2021/12/29 09:19:03;;;;;;;13.75;6.85;;;;;;;1.83;87.00;98830.88;4924922;29;20047;-90
2021/12/29 09:21:38;;;;;;;13.60;6.45;;;;;;;1.84;86.83;98840.13;4956035;29;20054;-90
2021/12/29 09:24:13;;;;;;;14.27;7.13;;;;;;;1.82;87.19;98814.13;4939356;29;20051;-89
2021/12/29 09:26:47;;;;;;;14.43;7.25;;;;;;;1.99;87.11;98822.84;4959040;28;20138;-88
2021/12/29 09:29:18;;;;;;;15.07;7.40;;;;;;;1.92;86.48;98810.97;4927128;29;20520;-90
2021/12/29 09:31:52;;;;;;;15.88;7.75;;;;;;;2.06;86.95;98816.25;4927499;29;20040;-92
2021/12/29 09:34:26;;;;;;;13.25;6.68;;;;;;;2.13;86.93;98813.88;4927607;29;20133;-92
2021/12/29 09:36:57;;;;;;;21.63;11.68;;;;;;;1.80;86.32;98765.47;4943180;29;20051;-91
2021/12/29 09:39:27;;;;;;;16.15;8.32;;;;;;;1.89;86.93;98773.16;4959753;28;20047;-91
2021/12/29 09:41:57;;;;;;;14.18;6.88;;;;;;;1.86;87.18;98760.53;4959941;28;20378;-91
2021/12/29 09:44:31;;;;;;;14.93;7.28;;;;;;;2.18;86.51;98803.88;4959677;29;20138;-91
2021/12/29 09:47:01;;;;;;;18.08;9.45;;;;;;;2.21;86.94;98799.75;4942485;29;20040;-91
2021/12/29 09:49:38;;;;;;;17.15;9.82;;;;;;;2.15;86.45;98774.47;4942499;29;20074;-92
2021/12/29 09:52:19;;;;;;;19.67;9.98;;;;;;;2.29;86.78;98805.78;4959460;28;20485;-92
2021/12/29 09:54:53;;;;;;;18.85;8.75;;;;;;;2.09;86.69;98769.31;4927644;29;20047;-92
2021/12/29 09:57:26;;;;;;;16.08;8.52;;;;;;;2.23;86.26;98794.75;4959356;28;20047;-91
2021/12/29 09:59:57;;;;;;;15.00;7.10;;;;;;;2.10;86.62;98750.06;4959331;29;20059;-90
2021/12/29 10:02:32;;;;;;;13.60;6.68;;;;;;;1.55;86.43;98662.72;4959149;29;20515;-89
2021/12/29 10:05:08;;;;;;;15.80;8.27;;;;;;;2.13;86.81;98740.91;4959114;29;20051;-89
2021/12/29 10:07:42;;;;;;;15.93;8.35;;;;;;;2.45;86.71;98782.53;4959312;29;20055;-91
2021/12/29 10:10:18;;;;;;;16.95;7.90;;;;;;;2.27;86.67;98764.63;4959187;29;20131;-91
2021/12/29 10:12:49;;;;;;;16.00;7.97;;;;;;;2.33;86.51;98779.81;4938822;29;20043;-90
2021/12/29 10:15:20;;;;;;;13.88;7.28;;;;;;;2.50;86.03;98803.63;4958948;29;20122;-90
2021/12/29 10:17:50;;;;;;;13.60;7.30;;;;;;;2.54;86.48;98807.88;4938507;29;20051;-89
2021/12/29 10:20:29;;;;;;;18.77;8.70;;;;;;;1.98;86.06;98720.50;4939009;29;20406;-89
2021/12/29 10:23:01;;;;;;;15.82;8.23;;;;;;;2.53;86.40;98798.63;4923023;29;20060;-89
2021/12/29 10:25:37;;;;;;;14.77;8.02;;;;;;;2.36;86.57;98769.81;4939782;29;20115;-88
2021/12/29 10:28:07;;;;;;;20.13;9.32;;;;;;;2.51;86.46;98792.75;4939817;29;20051;-89
2021/12/29 10:30:38;;;;;;;22.30;10.85;;;;;;;2.15;85.95;98744.28;4938879;29;20051;-89
2021/12/29 10:33:13;;;;;;;22.60;10.98;;;;;;;2.21;85.72;98779.59;4938367;29;20501;-89
2021/12/29 10:35:47;;;;;;;23.77;11.60;;;;;;;2.29;85.98;98788.16;4922969;29;20108;-90
2021/12/29 10:38:26;;;;;;;22.27;11.02;;;;;;;2.32;86.43;98798.28;4938524;29;20055;-90
2021/12/29 10:41:03;;;;;;;;;;;;;;;2.32;85.78;98808.34;4939183;29;20067;-90
2021/12/29 10:43:33;;;;;;;20.58;10.95;;;;;;;2.09;86.07;98759.25;4939335;29;20372;-89
2021/12/29 10:46:07;;;;;;;20.50;10.20;;;;;;;2.33;86.35;98805.00;4938374;29;20047;-89
2021/12/29 10:48:48;;;;;;;21.15;10.00;;;;;;;2.21;86.67;98784.63;4939199;29;20050;-89
2021/12/29 10:51:29;;;;;;;23.17;10.18;;;;;;;2.32;86.04;98813.38;4938342;29;20071;-90
2021/12/29 10:54:08;;;;;;;21.70;10.25;;;;;;;2.26;86.02;98788.09;4939194;29;20130;-90
2021/12/29 10:56:43;;;;;;;20.15;8.20;;;;;;;2.36;86.46;98810.09;4922413;29;20047;-89
2021/12/29 10:59:15;;;;;;;21.10;9.93;;;;;;;2.46;86.10;98806.91;4939364;29;20075;-90
2021/12/29 11:01:50;;;;;;;21.27;11.00;;;;;;;2.03;86.31;98718.91;4938221;29;20048;-91
2021/12/29 11:04:26;;;;;;;17.48;10.55;;;;;;;2.60;86.86;98800.44;4922017;29;20055;-90
2021/12/29 11:07:01;;;;;;;23.40;9.98;;;;;;;2.67;86.30;98821.53;4938944;29;20075;-90
2021/12/29 11:09:34;;;;;;;16.60;9.27;;;;;;;2.29;86.12;98752.06;4937926;29;20130;-89
2021/12/29 11:12:15;;;;;;;16.83;8.05;;;;;;;2.21;86.31;98751.09;4939534;29;20043;-90
2021/12/29 11:14:52;;;;;;;16.27;8.20;;;;;;;2.55;86.42;98821.31;4938649;29;20134;-89
2021/12/29 11:17:27;;;;;;;17.25;8.32;;;;;;;2.57;85.81;98825.56;4953188;29;20106;-89
2021/12/29 11:20:01;;;;;;;20.08;9.55;;;;;;;2.57;86.03;98830.59;4925064;29;20531;-90
2021/12/29 11:22:41;;;;;;;20.35;9.68;;;;;;;2.56;85.61;98823.88;4958461;29;20106;-89
2021/12/29 11:25:14;;;;;;;19.85;9.18;;;;;;;2.66;86.77;98830.75;4925132;29;20118;-91
2021/12/29 11:27:47;;;;;;;19.85;9.80;;;;;;;2.71;85.54;98824.13;4925606;29;20071;-91
2021/12/29 11:30:22;;;;;;;19.13;8.25;;;;;;;2.51;85.82;98797.78;4958151;28;20055;-90
2021/12/29 11:32:52;;;;;;;14.50;7.85;;;;;;;2.62;86.05;98818.94;4957488;29;20047;-90
2021/12/29 11:35:24;;;;;;;17.27;8.25;;;;;;;1.76;86.00;98684.06;4940877;29;20059;-90
2021/12/29 11:38:00;;;;;;;17.73;7.85;;;;;;;2.66;85.69;98820.66;4957458;28;20047;-89
2021/12/29 11:40:34;;;;;;;19.38;8.68;;;;;;;2.52;86.00;98796.94;4957303;29;20048;-89
2021/12/29 11:43:05;;;;;;;17.25;8.50;;;;;;;2.78;86.01;98839.34;4940829;29;20063;-89
2021/12/29 11:45:39;;;;;;;16.73;8.25;;;;;;;2.65;86.11;98829.06;4957088;28;20057;-89
2021/12/29 11:48:11;;;;;;;16.55;8.60;;;;;;;2.61;85.88;98826.47;4957015;28;20581;-89
2021/12/29 11:50:52;;;;;;;16.25;8.73;;;;;;;2.55;85.71;98814.63;4940484;29;20176;-88
2021/12/29 11:53:49;;;;;;;18.02;7.70;;;;;;;2.73;85.95;98834.25;4957093;28;20077;-89
2021/12/29 11:56:23;;;;;;;16.25;8.00;;;;;;;2.61;85.73;98842.44;4938512;29;20434;-89
2021/12/29 11:59:06;;;;;;;15.27;8.38;;;;;;;2.60;85.58;98834.84;4924948;29;20054;-89
2021/12/29 12:02:02;;;;;;;15.55;6.68;;;;;;;2.61;85.38;98837.41;4956969;28;20401;-89
2021/12/29 12:04:39;;;;;;;16.70;8.68;;;;;;;2.55;85.67;98829.72;4957260;29;20055;-89
2021/12/29 12:07:14;;;;;;;14.40;6.95;;;;;;;2.55;85.45;98811.25;4956931;29;20043;-89
2021/12/29 12:09:51;;;;;;;14.25;7.03;;;;;;;2.59;85.11;98828.13;4957023;28;20050;-88
2021/12/29 12:12:36;;;;;;;11.95;5.50;;;;;;;2.36;85.42;98794.97;4924571;29;20126;-87
2021/12/29 12:15:13;;;;;;;16.52;7.07;;;;;;;2.58;85.79;98837.34;4940098;29;20047;-89
2021/12/29 12:17:55;;;;;;;13.05;6.75;;;;;;;2.57;85.47;98835.63;4923498;29;20062;-92
2021/12/29 12:20:25;;;;;;;16.27;7.20;;;;;;;2.54;85.82;98839.78;4956659;28;20057;-91
2021/12/29 12:22:55;;;;;;;13.50;7.28;;;;;;;2.55;85.54;98842.31;4924494;29;20534;-90